createdAt,value
2018-07-26T00:00:28.154Z,16.2
2018-07-26T00:01:18.228Z,16.2
2018-07-26T00:02:08.289Z,16.2
2018-07-26T00:02:58.065Z,16.2
2018-07-26T00:03:48.234Z,16.2
2018-07-26T00:04:37.912Z,16.2
2018-07-26T00:05:28.561Z,16.2
2018-07-26T00:06:18.327Z,16.2
2018-07-26T00:07:08.409Z,16.2
2018-07-26T00:07:58.754Z,16.2
2018-07-26T00:08:48.816Z,16.2
2018-07-26T00:09:38.866Z,16.1
2018-07-26T00:10:28.667Z,16.2
2018-07-26T00:11:19.018Z,16.1
2018-07-26T00:12:08.812Z,16.1
2018-07-26T00:12:58.575Z,16.1
2018-07-26T00:13:49.174Z,16.2
2018-07-26T00:14:39.245Z,16.1
2018-07-26T00:15:29.331Z,16.1
2018-07-26T00:16:19.380Z,16.1
2018-07-26T00:17:09.176Z,16.1
2018-07-26T00:17:59.242Z,16.1
2018-07-26T00:18:49.313Z,16.1
2018-07-26T00:19:39.630Z,16.1
2018-07-26T00:20:29.438Z,16.1
2018-07-26T00:21:19.207Z,16.1
2018-07-26T00:22:09.823Z,16.1
2018-07-26T00:22:59.627Z,16.1
2018-07-26T00:23:49.957Z,16.1
2018-07-26T00:24:40.036Z,16.1
2018-07-26T00:25:30.077Z,16.1
2018-07-26T00:26:20.172Z,16.1
2018-07-26T00:27:09.961Z,16.1
2018-07-26T00:27:59.993Z,16.1
2018-07-26T00:28:49.776Z,16.1
2018-07-26T00:29:40.121Z,16.1
2018-07-26T00:30:30.484Z,16.1
2018-07-26T00:31:20.253Z,16.1
2018-07-26T00:32:10.633Z,16.1
2018-07-26T00:33:00.657Z,16.1
2018-07-26T00:33:50.450Z,16.1
2018-07-26T00:34:40.798Z,16.1
2018-07-26T00:35:30.847Z,16.1
2018-07-26T00:36:20.905Z,16.1
2018-07-26T00:37:10.990Z,16.1
2018-07-26T00:38:01.046Z,16.1
2018-07-26T00:38:50.843Z,16.1
2018-07-26T00:39:41.163Z,16.1
2018-07-26T00:40:31.245Z,16.1
2018-07-26T00:41:21.466Z,16.1
2018-07-26T00:42:11.094Z,16.1
2018-07-26T00:43:00.878Z,16.1
2018-07-26T00:43:51.489Z,16.2
2018-07-26T00:44:40.995Z,16.2
2018-07-26T00:45:31.614Z,16.2
2018-07-26T00:46:21.729Z,16.2
2018-07-26T00:47:11.742Z,16.2
2018-07-26T00:48:01.836Z,16.2
2018-07-26T00:48:52.324Z,16.2
2018-07-26T00:49:41.679Z,16.2
2018-07-26T00:50:32.011Z,16.2
2018-07-26T00:51:21.791Z,16.2
2018-07-26T00:52:12.149Z,16.2
2018-07-26T00:53:01.932Z,16.2
2018-07-26T00:53:51.999Z,16.2
2018-07-26T00:54:42.330Z,16.2
2018-07-26T00:55:32.377Z,16.3
2018-07-26T00:56:22.443Z,16.3
2018-07-26T00:57:12.241Z,16.2
2018-07-26T00:58:02.582Z,16.3
2018-07-26T00:58:52.654Z,16.3
2018-07-26T00:59:42.447Z,16.3
2018-07-26T01:00:32.776Z,16.3
2018-07-26T01:01:22.278Z,16.3
2018-07-26T01:02:12.347Z,16.3
2018-07-26T01:03:02.968Z,16.3
2018-07-26T01:03:52.476Z,16.3
2018-07-26T01:04:43.081Z,16.3
2018-07-26T01:05:32.905Z,16.3
2018-07-26T01:06:23.241Z,16.3
2018-07-26T01:07:13.276Z,16.3
2018-07-26T01:08:03.377Z,16.3
2018-07-26T01:08:53.127Z,16.3
2018-07-26T01:09:43.364Z,16.3
2018-07-26T01:10:33.283Z,16.3
2018-07-26T01:11:23.609Z,16.3
2018-07-26T01:12:13.679Z,16.4
2018-07-26T01:13:03.200Z,16.4
2018-07-26T01:13:53.848Z,16.4
2018-07-26T01:14:43.866Z,16.4
2018-07-26T01:15:33.660Z,16.4
2018-07-26T01:16:23.708Z,16.4
2018-07-26T01:17:14.082Z,16.4
2018-07-26T01:18:03.853Z,16.4
2018-07-26T01:18:53.899Z,16.4
2018-07-26T01:19:44.243Z,16.4
2018-07-26T01:20:34.322Z,16.4
2018-07-26T01:21:24.381Z,16.4
2018-07-26T01:22:14.432Z,16.4
2018-07-26T01:23:04.523Z,16.4
2018-07-26T01:23:54.593Z,16.4
2018-07-26T01:24:44.663Z,16.4
2018-07-26T01:25:34.692Z,16.4
2018-07-26T01:26:24.761Z,16.4
2018-07-26T01:27:14.879Z,16.4
2018-07-26T01:28:04.881Z,16.4
2018-07-26T01:28:54.950Z,16.5
2018-07-26T01:29:45.032Z,16.5
2018-07-26T01:30:35.097Z,16.5
2018-07-26T01:31:24.856Z,16.6
2018-07-26T01:32:14.923Z,16.5
2018-07-26T01:33:04.999Z,16.5
2018-07-26T01:33:55.044Z,16.6
2018-07-26T01:34:45.166Z,16.6
2018-07-26T01:35:35.488Z,16.6
2018-07-26T01:36:25.260Z,16.6
2018-07-26T01:37:15.604Z,16.6
2018-07-26T01:38:05.634Z,16.6
2018-07-26T01:38:55.709Z,16.6
2018-07-26T01:39:45.798Z,16.6
2018-07-26T01:40:35.561Z,16.6
2018-07-26T01:41:25.356Z,16.6
2018-07-26T01:42:15.792Z,16.6
2018-07-26T01:43:06.027Z,16.6
2018-07-26T01:43:56.091Z,16.6
2018-07-26T01:44:46.213Z,16.7
2018-07-26T01:45:36.245Z,16.6
2018-07-26T01:46:26.290Z,16.6
2018-07-26T01:47:16.363Z,16.6
2018-07-26T01:48:06.157Z,16.7
2018-07-26T01:48:56.527Z,16.7
2018-07-26T01:49:46.264Z,16.7
2018-07-26T01:50:36.656Z,16.7
2018-07-26T01:51:26.685Z,16.7
2018-07-26T01:52:16.455Z,16.8
2018-07-26T01:53:06.837Z,16.7
2018-07-26T01:53:56.573Z,16.7
2018-07-26T01:54:46.363Z,16.7
2018-07-26T01:55:36.992Z,16.8
2018-07-26T01:56:27.070Z,16.8
2018-07-26T01:57:16.842Z,16.8
2018-07-26T01:58:07.203Z,16.8
2018-07-26T01:58:56.999Z,16.8
2018-07-26T01:59:47.304Z,16.8
2018-07-26T02:00:37.376Z,16.8
2018-07-26T02:01:27.437Z,16.8
2018-07-26T02:02:17.510Z,16.8
2018-07-26T02:03:07.586Z,16.8
2018-07-26T02:03:57.633Z,16.8
2018-07-26T02:04:47.712Z,16.8
2018-07-26T02:05:37.759Z,16.8
2018-07-26T02:06:27.561Z,16.8
2018-07-26T02:07:17.899Z,16.8
2018-07-26T02:08:07.974Z,16.8
2018-07-26T02:08:57.472Z,16.8
2018-07-26T02:09:48.104Z,16.8
2018-07-26T02:10:37.894Z,16.8
2018-07-26T02:11:27.668Z,16.8
2018-07-26T02:12:17.712Z,16.8
2018-07-26T02:13:08.348Z,16.8
2018-07-26T02:13:58.421Z,16.8
2018-07-26T02:14:48.199Z,16.8
2018-07-26T02:15:38.252Z,16.8
2018-07-26T02:16:28.318Z,16.8
2018-07-26T02:17:18.649Z,16.9
2018-07-26T02:18:08.737Z,16.9
2018-07-26T02:18:58.795Z,16.9
2018-07-26T02:19:48.855Z,16.9
2018-07-26T02:20:38.916Z,16.9
2018-07-26T02:21:28.992Z,16.9
2018-07-26T02:22:18.764Z,16.9
2018-07-26T02:23:09.118Z,16.9
2018-07-26T02:23:59.164Z,16.9
2018-07-26T02:24:49.304Z,16.9
2018-07-26T02:25:39.032Z,16.9
2018-07-26T02:26:29.371Z,16.9
2018-07-26T02:27:19.434Z,16.9
2018-07-26T02:28:09.497Z,16.9
2018-07-26T02:28:59.274Z,16.9
2018-07-26T02:29:49.362Z,16.9
2018-07-26T02:30:39.682Z,16.9
2018-07-26T02:31:29.486Z,16.9
2018-07-26T02:32:19.812Z,16.9
2018-07-26T02:33:09.883Z,16.9
2018-07-26T02:33:59.955Z,16.9
2018-07-26T02:34:50.027Z,16.9
2018-07-26T02:35:40.085Z,16.9
2018-07-26T02:36:30.146Z,16.9
2018-07-26T02:37:19.929Z,16.9
2018-07-26T02:38:10.293Z,16.9
2018-07-26T02:39:00.045Z,16.9
2018-07-26T02:39:50.389Z,16.9
2018-07-26T02:40:40.461Z,16.9
2018-07-26T02:41:30.529Z,16.9
2018-07-26T02:42:20.624Z,16.9
2018-07-26T02:43:10.639Z,16.9
2018-07-26T02:44:00.426Z,16.9
2018-07-26T02:44:50.800Z,16.9
2018-07-26T02:45:40.838Z,16.9
2018-07-26T02:46:30.897Z,16.9
2018-07-26T02:47:20.972Z,16.9
2018-07-26T02:48:10.762Z,16.9
2018-07-26T02:49:00.542Z,16.9
2018-07-26T02:49:51.228Z,16.9
2018-07-26T02:50:41.232Z,16.9
2018-07-26T02:51:31.001Z,16.9
2018-07-26T02:52:21.365Z,16.9
2018-07-26T02:53:11.431Z,16.9
2018-07-26T02:54:01.198Z,16.8
2018-07-26T02:54:51.535Z,16.9
2018-07-26T02:55:41.606Z,16.8
2018-07-26T02:56:31.401Z,16.8
2018-07-26T02:57:21.183Z,16.8
2018-07-26T02:58:11.527Z,16.8
2018-07-26T02:59:01.643Z,16.8
2018-07-26T02:59:51.940Z,16.8
2018-07-26T03:00:42.014Z,16.8
2018-07-26T03:01:31.767Z,16.8
2018-07-26T03:02:22.159Z,16.8
2018-07-26T03:03:12.204Z,16.8
2018-07-26T03:04:01.969Z,16.8
2018-07-26T03:04:52.307Z,16.8
2018-07-26T03:05:42.184Z,16.8
2018-07-26T03:06:32.145Z,16.8
2018-07-26T03:07:22.773Z,16.8
2018-07-26T03:08:12.591Z,16.8
2018-07-26T03:09:02.647Z,16.7
2018-07-26T03:09:52.706Z,16.7
2018-07-26T03:10:42.760Z,16.7
2018-07-26T03:11:32.564Z,16.7
2018-07-26T03:12:22.595Z,16.6
2018-07-26T03:13:12.951Z,16.6
2018-07-26T03:14:02.762Z,16.7
2018-07-26T03:14:53.075Z,16.6
2018-07-26T03:15:43.167Z,16.6
2018-07-26T03:16:33.247Z,16.6
2018-07-26T03:17:23.253Z,16.6
2018-07-26T03:18:13.347Z,16.6
2018-07-26T03:19:03.128Z,16.6
2018-07-26T03:19:53.476Z,16.6
2018-07-26T03:20:43.241Z,16.6
2018-07-26T03:21:33.630Z,16.5
2018-07-26T03:22:23.404Z,16.5
2018-07-26T03:23:13.741Z,16.5
2018-07-26T03:24:03.517Z,16.5
2018-07-26T03:24:53.866Z,16.4
2018-07-26T03:25:44.036Z,16.4
2018-07-26T03:26:33.965Z,16.4
2018-07-26T03:27:24.050Z,16.4
2018-07-26T03:28:13.808Z,16.4
2018-07-26T03:29:03.595Z,16.4
2018-07-26T03:29:54.238Z,16.4
2018-07-26T03:30:44.349Z,16.3
2018-07-26T03:31:33.782Z,16.3
2018-07-26T03:32:23.854Z,16.3
2018-07-26T03:33:14.491Z,16.3
2018-07-26T03:34:04.541Z,16.3
2018-07-26T03:34:54.605Z,16.3
2018-07-26T03:35:44.682Z,16.3
2018-07-26T03:36:34.788Z,16.2
2018-07-26T03:37:24.781Z,16.2
2018-07-26T03:38:14.850Z,16.2
2018-07-26T03:39:04.919Z,16.2
2018-07-26T03:39:54.997Z,16.1
2018-07-26T03:40:45.039Z,16.1
2018-07-26T03:41:35.170Z,16.1
2018-07-26T03:42:25.181Z,16.1
2018-07-26T03:43:15.239Z,16.1
2018-07-26T03:44:05.302Z,16.1
2018-07-26T03:44:55.372Z,16.1
2018-07-26T03:45:45.415Z,16
2018-07-26T03:46:35.504Z,16
2018-07-26T03:47:25.266Z,16
2018-07-26T03:48:15.052Z,15.9
2018-07-26T03:49:05.394Z,15.9
2018-07-26T03:49:55.747Z,15.9
2018-07-26T03:50:45.630Z,15.9
2018-07-26T03:51:35.633Z,15.9
2018-07-26T03:52:25.953Z,15.9
2018-07-26T03:53:15.718Z,15.9
2018-07-26T03:54:06.068Z,15.9
2018-07-26T03:54:56.134Z,15.9
2018-07-26T03:55:46.202Z,15.8
2018-07-26T03:56:35.985Z,15.8
2018-07-26T03:57:26.307Z,15.8
2018-07-26T03:58:16.381Z,15.8
2018-07-26T03:59:06.440Z,15.8
2018-07-26T03:59:56.268Z,15.8
2018-07-26T04:00:46.574Z,15.8
2018-07-26T04:01:36.640Z,15.8
2018-07-26T04:02:26.704Z,15.8
2018-07-26T04:03:17.090Z,15.8
2018-07-26T04:04:06.851Z,15.8
2018-07-26T04:04:56.892Z,15.8
2018-07-26T04:05:46.965Z,15.8
2018-07-26T04:06:37.033Z,15.8
2018-07-26T04:07:26.535Z,15.8
2018-07-26T04:08:17.158Z,15.8
2018-07-26T04:09:07.211Z,15.8
2018-07-26T04:09:57.295Z,15.8
2018-07-26T04:10:47.082Z,15.8
2018-07-26T04:11:37.396Z,15.8
2018-07-26T04:12:27.197Z,15.8
2018-07-26T04:13:17.544Z,15.8
2018-07-26T04:14:07.909Z,15.8
2018-07-26T04:14:57.107Z,15.8
2018-07-26T04:15:47.712Z,15.8
2018-07-26T04:16:37.526Z,15.8
2018-07-26T04:17:27.305Z,15.8
2018-07-26T04:18:17.646Z,15.8
2018-07-26T04:19:07.980Z,15.8
2018-07-26T04:19:58.180Z,15.8
2018-07-26T04:20:48.136Z,15.8
2018-07-26T04:21:37.618Z,15.8
2018-07-26T04:22:28.219Z,15.8
2018-07-26T04:23:18.284Z,15.9
2018-07-26T04:24:08.352Z,15.9
2018-07-26T04:24:58.131Z,15.9
2018-07-26T04:25:48.214Z,15.9
2018-07-26T04:26:38.277Z,15.9
2018-07-26T04:27:28.616Z,15.9
2018-07-26T04:28:18.406Z,15.9
2018-07-26T04:29:08.757Z,15.9
2018-07-26T04:29:58.517Z,16
2018-07-26T04:30:48.891Z,16.1
2018-07-26T04:31:38.956Z,16.1
2018-07-26T04:32:29.005Z,16.1
2018-07-26T04:33:19.104Z,16.1
2018-07-26T04:34:09.134Z,16.1
2018-07-26T04:34:59.191Z,16.2
2018-07-26T04:35:48.968Z,16.2
2018-07-26T04:36:39.069Z,16.3
2018-07-26T04:37:29.378Z,16.3
2018-07-26T04:38:19.443Z,16.4
2018-07-26T04:39:09.529Z,16.4
2018-07-26T04:39:59.297Z,16.4
2018-07-26T04:40:49.648Z,16.5
2018-07-26T04:41:39.693Z,16.6
2018-07-26T04:42:29.776Z,16.6
2018-07-26T04:43:19.857Z,16.7
2018-07-26T04:44:09.907Z,16.8
2018-07-26T04:44:59.956Z,16.8
2018-07-26T04:45:49.741Z,16.9
2018-07-26T04:46:40.086Z,16.9
2018-07-26T04:48:20.222Z,17.1
2018-07-26T04:49:09.987Z,17.1
2018-07-26T04:50:00.329Z,17.2
2018-07-26T04:50:50.395Z,17.3
2018-07-26T04:51:40.457Z,17.4
2018-07-26T04:52:30.257Z,17.5
2018-07-26T04:53:20.590Z,17.6
2018-07-26T04:54:10.664Z,17.7
2018-07-26T04:55:00.717Z,17.8
2018-07-26T04:55:50.779Z,17.8
2018-07-26T04:56:40.856Z,17.9
2018-07-26T04:57:30.921Z,18.1
2018-07-26T04:58:20.400Z,18.1
2018-07-26T04:59:11.036Z,18.3
2018-07-26T05:00:01.112Z,18.4
2018-07-26T05:00:51.183Z,18.5
2018-07-26T05:01:41.216Z,18.6
2018-07-26T05:02:31.289Z,18.8
2018-07-26T05:03:21.074Z,18.9
2018-07-26T05:04:11.404Z,19
2018-07-26T05:05:01.513Z,19.1
2018-07-26T05:05:51.546Z,19.3
2018-07-26T05:06:41.405Z,19.4
2018-07-26T05:07:31.395Z,19.6
2018-07-26T05:08:21.465Z,19.7
2018-07-26T05:09:11.823Z,19.9
2018-07-26T05:10:01.879Z,20
2018-07-26T05:10:51.937Z,20.2
2018-07-26T05:11:42.041Z,20.4
2018-07-26T05:12:32.125Z,20.6
2018-07-26T05:13:22.179Z,20.7
2018-07-26T05:14:11.907Z,20.9
2018-07-26T05:15:16.903Z,21.1
2018-07-26T05:15:52.332Z,21.3
2018-07-26T05:16:42.379Z,21.5
2018-07-26T05:17:32.443Z,21.7
2018-07-26T05:18:22.640Z,21.9
2018-07-26T05:19:13.176Z,22.1
2018-07-26T05:20:02.358Z,22.3
2018-07-26T05:20:52.141Z,22.5
2018-07-26T05:21:42.758Z,22.8
2018-07-26T05:22:32.275Z,22.9
2018-07-26T05:23:22.875Z,23.1
2018-07-26T05:24:12.948Z,23.4
2018-07-26T05:25:03.016Z,23.6
2018-07-26T05:25:53.075Z,23.9
2018-07-26T05:26:42.870Z,24.1
2018-07-26T05:27:33.199Z,24.3
2018-07-26T05:28:22.998Z,24.6
2018-07-26T05:29:13.331Z,24.8
2018-07-26T05:30:03.396Z,25.1
2018-07-26T05:30:53.169Z,25.3
2018-07-26T05:31:43.552Z,25.6
2018-07-26T05:32:33.597Z,25.8
2018-07-26T05:33:23.668Z,26.1
2018-07-26T05:34:13.716Z,26.3
2018-07-26T05:35:03.796Z,26.6
2018-07-26T05:35:53.568Z,26.9
2018-07-26T05:36:43.923Z,27.1
2018-07-26T05:37:33.699Z,27.4
2018-07-26T05:38:24.051Z,27.7
2018-07-26T05:39:14.096Z,27.9
2018-07-26T05:40:04.171Z,28.3
2018-07-26T05:40:54.224Z,28.5
2018-07-26T05:41:44.310Z,28.8
2018-07-26T05:42:34.076Z,28.9
2018-07-26T05:43:24.456Z,29.2
2018-07-26T05:44:14.480Z,29.5
2018-07-26T05:45:04.088Z,29.8
2018-07-26T05:45:54.608Z,30.1
2018-07-26T05:46:44.720Z,30.3
2018-07-26T05:47:34.755Z,30.6
2018-07-26T05:48:24.518Z,30.9
2018-07-26T05:49:14.306Z,31.3
2018-07-26T05:50:04.932Z,31.6
2018-07-26T05:50:54.827Z,31.9
2018-07-26T05:51:44.791Z,32.3
2018-07-26T05:52:35.137Z,26.3
2018-07-26T05:53:25.129Z,22.5
2018-07-26T05:54:15.286Z,35.4
2018-07-26T05:55:05.341Z,39.7
2018-07-26T05:55:55.122Z,40.2
2018-07-26T05:56:45.173Z,40.3
2018-07-26T05:57:35.514Z,39.7
2018-07-26T05:58:25.290Z,39.1
2018-07-26T05:59:15.628Z,38.7
2018-07-26T06:00:05.810Z,38.5
2018-07-26T06:00:55.751Z,38.3
2018-07-26T06:01:45.808Z,38.2
2018-07-26T06:02:35.881Z,38.1
2018-07-26T06:03:25.672Z,37.9
2018-07-26T06:04:16.022Z,37.9
2018-07-26T06:05:06.075Z,37.8
2018-07-26T06:05:55.852Z,37.8
2018-07-26T06:06:46.214Z,37.8
2018-07-26T06:07:36.262Z,37.9
2018-07-26T06:08:26.066Z,38
2018-07-26T06:09:16.399Z,38.1
2018-07-26T06:10:06.469Z,37.6
2018-07-26T06:10:56.518Z,38.4
2018-07-26T06:11:46.299Z,41.5
2018-07-26T06:12:36.641Z,43
2018-07-26T06:13:26.712Z,43.8
2018-07-26T06:14:16.773Z,45
2018-07-26T06:15:06.850Z,44.9
2018-07-26T06:15:56.921Z,44.6
2018-07-26T06:16:46.983Z,44.6
2018-07-26T06:17:37.051Z,44.6
2018-07-26T06:18:26.820Z,44.9
2018-07-26T06:19:16.896Z,45.2
2018-07-26T06:20:07.243Z,45.4
2018-07-26T06:20:57.314Z,45.6
2018-07-26T06:21:47.371Z,45.6
2018-07-26T06:22:37.141Z,45.7
2018-07-26T06:23:27.486Z,45.8
2018-07-26T06:24:17.595Z,45.9
2018-07-26T06:25:07.626Z,46
2018-07-26T06:25:57.395Z,46.1
2018-07-26T06:26:47.726Z,46.3
2018-07-26T06:27:37.535Z,46.4
2018-07-26T06:28:27.584Z,46.4
2018-07-26T06:29:17.933Z,46.5
2018-07-26T06:30:07.986Z,46.6
2018-07-26T06:30:58.065Z,46.6
2018-07-26T06:31:48.155Z,46.7
2018-07-26T06:32:38.177Z,46.8
2018-07-26T06:33:28.671Z,46.8
2018-07-26T06:34:18.047Z,46.6
2018-07-26T06:35:08.391Z,46.4
2018-07-26T06:35:58.463Z,46.6
2018-07-26T06:36:48.240Z,46.8
2018-07-26T06:37:38.583Z,47
2018-07-26T06:38:28.633Z,47.2
2018-07-26T06:39:18.692Z,47.3
2018-07-26T06:40:08.496Z,47.4
2018-07-26T06:40:58.829Z,47.4
2018-07-26T06:41:48.890Z,47.4
2018-07-26T06:42:38.681Z,47.5
2018-07-26T06:43:29.024Z,47.6
2018-07-26T06:44:19.078Z,47.7
2018-07-26T06:45:09.172Z,47.4
2018-07-26T06:45:58.960Z,47.3
2018-07-26T06:46:48.992Z,47.4
2018-07-26T06:47:39.361Z,47.6
2018-07-26T06:48:29.186Z,47.8
2018-07-26T06:49:19.185Z,47.9
2018-07-26T06:50:09.262Z,48.1
2018-07-26T06:50:59.606Z,48.1
2018-07-26T06:51:49.383Z,48.2
2018-07-26T06:52:39.458Z,48.3
2018-07-26T06:53:29.788Z,48.4
2018-07-26T06:54:19.852Z,48.5
2018-07-26T06:55:09.634Z,48.6
2018-07-26T06:55:59.995Z,48.7
2018-07-26T06:56:50.048Z,48.8
2018-07-26T06:57:39.842Z,48.8
2018-07-26T06:58:30.173Z,48.9
2018-07-26T06:59:19.949Z,49
2018-07-26T07:00:10.295Z,49.1
2018-07-26T07:01:00.181Z,49.3
2018-07-26T07:01:50.428Z,49.4
2018-07-26T07:02:40.515Z,49.4
2018-07-26T07:03:30.569Z,49.6
2018-07-26T07:04:20.632Z,49.6
2018-07-26T07:05:10.703Z,49.8
2018-07-26T07:06:00.741Z,49.9
2018-07-26T07:06:50.803Z,49.9
2018-07-26T07:07:40.598Z,50.1
2018-07-26T07:08:30.937Z,50.1
2018-07-26T07:09:20.737Z,50.3
2018-07-26T07:10:11.353Z,50.4
2018-07-26T07:11:01.145Z,50.4
2018-07-26T07:11:51.210Z,50.6
2018-07-26T07:12:41.287Z,50.7
2018-07-26T07:13:31.347Z,50.8
2018-07-26T07:14:21.444Z,50.8
2018-07-26T07:15:11.470Z,50.9
2018-07-26T07:16:01.544Z,51
2018-07-26T07:16:51.578Z,51.1
2018-07-26T07:17:41.651Z,51.1
2018-07-26T07:18:31.426Z,51.3
2018-07-26T07:19:21.773Z,51.3
2018-07-26T07:20:11.852Z,51.4
2018-07-26T07:21:01.683Z,51.5
2018-07-26T07:21:51.967Z,51.6
2018-07-26T07:22:42.054Z,51.6
2018-07-26T07:23:31.823Z,51.8
2018-07-26T07:24:21.894Z,51.9
2018-07-26T07:25:12.227Z,52
2018-07-26T07:26:02.485Z,52.1
2018-07-26T07:26:52.354Z,52.2
2018-07-26T07:27:42.234Z,52.3
2018-07-26T07:29:22.542Z,52.4
2018-07-26T07:30:12.334Z,52.6
2018-07-26T07:31:02.413Z,52.6
2018-07-26T07:31:52.746Z,52.7
2018-07-26T07:32:42.820Z,52.8
2018-07-26T07:33:32.931Z,52.8
2018-07-26T07:34:22.954Z,52.8
2018-07-26T07:35:12.993Z,52.9
2018-07-26T07:36:02.801Z,53
2018-07-26T07:36:52.642Z,53.1
2018-07-26T07:37:43.196Z,53.3
2018-07-26T07:38:33.268Z,53.1
2018-07-26T07:39:23.058Z,52.9
2018-07-26T07:40:13.434Z,52.7
2018-07-26T07:41:03.443Z,52.5
2018-07-26T07:41:53.628Z,52.4
2018-07-26T07:42:43.311Z,52.6
2018-07-26T07:43:33.372Z,52.9
2018-07-26T07:44:23.700Z,53.3
2018-07-26T07:45:13.502Z,53.4
2018-07-26T07:46:03.562Z,53.5
2018-07-26T07:46:53.920Z,53.6
2018-07-26T07:47:44.365Z,53.6
2018-07-26T07:48:33.764Z,53.8
2018-07-26T07:49:24.112Z,53.9
2018-07-26T07:50:14.175Z,54
2018-07-26T07:51:04.220Z,54.1
2018-07-26T07:51:54.290Z,54.1
2018-07-26T07:52:44.401Z,54.3
2018-07-26T07:53:34.427Z,54.3
2018-07-26T07:54:24.495Z,54.4
2018-07-26T07:55:14.614Z,54.5
2018-07-26T07:56:04.655Z,54.6
2018-07-26T07:56:54.703Z,54.7
2018-07-26T07:57:44.487Z,54.8
2018-07-26T07:58:34.806Z,54.9
2018-07-26T07:59:24.621Z,54.9
2018-07-26T08:00:14.383Z,55.1
2018-07-26T08:01:05.002Z,55.1
2018-07-26T08:01:54.224Z,55.1
2018-07-26T08:02:45.144Z,55.1
2018-07-26T08:03:35.187Z,55.2
2018-07-26T08:04:24.982Z,55.4
2018-07-26T08:05:15.589Z,55.5
2018-07-26T08:06:05.169Z,55.6
2018-07-26T08:06:55.459Z,55.7
2018-07-26T08:07:45.500Z,55.8
2018-07-26T08:08:35.611Z,55.9
2018-07-26T08:09:25.367Z,56
2018-07-26T08:10:15.164Z,56.1
2018-07-26T08:11:05.773Z,56.1
2018-07-26T08:11:55.853Z,56.2
2018-07-26T08:12:45.458Z,56.3
2018-07-26T08:13:35.975Z,56.3
2018-07-26T08:14:25.779Z,56.3
2018-07-26T08:15:16.103Z,56.4
2018-07-26T08:16:06.153Z,56.4
2018-07-26T08:16:56.236Z,56.5
2018-07-26T08:17:46.285Z,56.6
2018-07-26T08:18:36.363Z,56.7
2018-07-26T08:19:26.145Z,56.7
2018-07-26T08:20:16.485Z,56.6
2018-07-26T08:21:06.275Z,56.5
2018-07-26T08:21:56.610Z,56.4
2018-07-26T08:22:46.411Z,56.4
2018-07-26T08:23:36.745Z,56.4
2018-07-26T08:24:26.558Z,56.5
2018-07-26T08:25:16.598Z,56.7
2018-07-26T08:26:06.963Z,56.9
2018-07-26T08:26:56.730Z,57.1
2018-07-26T08:27:47.074Z,57.2
2018-07-26T08:28:37.131Z,57.4
2018-07-26T08:29:27.137Z,57.5
2018-07-26T08:30:16.982Z,57.6
2018-07-26T08:31:07.337Z,57.6
2018-07-26T08:31:57.397Z,57.4
2018-07-26T08:32:47.455Z,57.5
2018-07-26T08:33:37.529Z,57.6
2018-07-26T08:35:17.675Z,57.9
2018-07-26T08:36:07.721Z,58
2018-07-26T08:36:57.799Z,58.1
2018-07-26T08:37:47.847Z,58.3
2018-07-26T08:38:37.901Z,58.3
2018-07-26T08:39:27.968Z,58.3
2018-07-26T08:40:18.027Z,58.4
2018-07-26T08:41:08.504Z,58.5
2018-07-26T08:42:47.944Z,58.7
2018-07-26T08:43:38.505Z,58.8
2018-07-26T08:44:28.353Z,58.9
2018-07-26T08:45:18.449Z,58.9
2018-07-26T08:46:08.477Z,59
2018-07-26T08:46:58.534Z,59.1
2018-07-26T08:47:48.608Z,59.1
2018-07-26T08:48:38.697Z,59.2
2018-07-26T08:49:28.747Z,59.3
2018-07-26T08:50:18.524Z,59.4
2018-07-26T08:51:08.872Z,59.5
2018-07-26T08:51:58.655Z,59.6
2018-07-26T08:52:49.004Z,59.6
2018-07-26T08:53:38.779Z,59.8
2018-07-26T08:54:28.845Z,59.8
2018-07-26T08:55:19.225Z,59.9
2018-07-26T08:56:09.256Z,60
2018-07-26T08:56:59.319Z,60.1
2018-07-26T08:57:49.122Z,60.1
2018-07-26T08:58:39.450Z,60.2
2018-07-26T08:59:29.519Z,60.1
2018-07-26T09:00:19.298Z,59.8
2018-07-26T09:01:09.948Z,59.6
2018-07-26T09:01:59.432Z,59.4
2018-07-26T09:02:49.597Z,59.6
2018-07-26T09:03:39.857Z,59.6
2018-07-26T09:04:29.924Z,59.5
2018-07-26T09:05:19.699Z,59.6
2018-07-26T09:06:09.791Z,59.9
2018-07-26T09:06:59.823Z,60.1
2018-07-26T09:07:50.175Z,60.3
2018-07-26T09:08:40.302Z,60.3
2018-07-26T09:09:30.315Z,60.3
2018-07-26T09:10:20.371Z,60.1
2018-07-26T09:11:10.167Z,60.1
2018-07-26T09:12:00.509Z,60
2018-07-26T09:12:50.565Z,59.8
2018-07-26T09:13:40.757Z,59.6
2018-07-26T09:14:30.685Z,59.4
2018-07-26T09:15:20.756Z,59.3
2018-07-26T09:16:10.814Z,59.1
2018-07-26T09:17:00.617Z,59.1
2018-07-26T09:17:51.018Z,59
2018-07-26T09:18:41.009Z,58.9
2018-07-26T09:19:31.153Z,58.8
2018-07-26T09:20:21.131Z,58.6
2018-07-26T09:22:01.258Z,58.4
2018-07-26T09:22:51.367Z,58.4
2018-07-26T09:23:41.388Z,58.3
2018-07-26T09:24:31.770Z,58.4
2018-07-26T09:25:21.540Z,58.8
2018-07-26T09:26:11.692Z,59.3
2018-07-26T09:27:01.652Z,59.8
2018-07-26T09:27:51.711Z,60
2018-07-26T09:28:41.777Z,60.1
2018-07-26T09:29:31.846Z,60.3
2018-07-26T09:30:21.914Z,60.4
2018-07-26T09:31:11.974Z,60.5
2018-07-26T09:32:02.066Z,60.6
2018-07-26T09:32:52.207Z,60.8
2018-07-26T09:33:42.191Z,60.9
2018-07-26T09:34:32.252Z,61.1
2018-07-26T09:35:22.431Z,61.2
2018-07-26T09:36:12.383Z,61.3
2018-07-26T09:37:02.436Z,61.3
2018-07-26T09:37:52.227Z,61.4
2018-07-26T09:38:42.557Z,61.6
2018-07-26T09:39:32.624Z,61.7
2018-07-26T09:40:22.728Z,61.8
2018-07-26T09:41:13.104Z,61.8
2018-07-26T09:42:02.839Z,61.9
2018-07-26T09:42:52.889Z,62
2018-07-26T09:43:42.949Z,62.1
2018-07-26T09:44:32.747Z,62.2
2018-07-26T09:45:23.083Z,62.3
2018-07-26T09:46:13.139Z,62.4
2018-07-26T09:47:02.945Z,62.5
2018-07-26T09:47:53.294Z,62.6
2018-07-26T09:48:43.360Z,62.6
2018-07-26T09:49:33.143Z,62.7
2018-07-26T09:50:23.476Z,62.8
2018-07-26T09:51:13.266Z,62.9
2018-07-26T09:52:03.620Z,63
2018-07-26T09:52:53.400Z,63.1
2018-07-26T09:53:43.724Z,63.2
2018-07-26T09:54:33.783Z,63.2
2018-07-26T09:55:23.861Z,63.3
2018-07-26T09:56:13.931Z,63.4
2018-07-26T09:57:03.445Z,63.5
2018-07-26T09:57:54.047Z,63.6
2018-07-26T09:58:43.569Z,63.7
2018-07-26T09:59:34.182Z,63.7
2018-07-26T10:00:24.227Z,63.8
2018-07-26T10:01:14.031Z,63.9
2018-07-26T10:02:04.371Z,64
2018-07-26T10:02:54.171Z,64.1
2018-07-26T10:03:44.506Z,64.1
2018-07-26T10:04:33.998Z,64.2
2018-07-26T10:05:24.629Z,64.3
2018-07-26T10:06:14.408Z,64.4
2018-07-26T10:07:04.759Z,64.5
2018-07-26T10:07:54.271Z,64.6
2018-07-26T10:08:44.628Z,64.6
2018-07-26T10:09:34.957Z,64.7
2018-07-26T10:10:24.770Z,64.8
2018-07-26T10:11:15.097Z,64.8
2018-07-26T10:12:05.160Z,64.9
2018-07-26T10:12:55.233Z,65
2018-07-26T10:13:45.283Z,65.1
2018-07-26T10:14:35.349Z,65.2
2018-07-26T10:15:25.422Z,65.3
2018-07-26T10:16:15.480Z,65.3
2018-07-26T10:17:05.566Z,65.4
2018-07-26T10:17:55.612Z,65.6
2018-07-26T10:18:45.676Z,65.6
2018-07-26T10:19:35.751Z,65.7
2018-07-26T10:20:25.524Z,65.8
2018-07-26T10:21:15.908Z,65.9
2018-07-26T10:22:05.938Z,65.9
2018-07-26T10:22:56.009Z,66
2018-07-26T10:23:46.119Z,66.1
2018-07-26T10:24:36.145Z,66
2018-07-26T10:25:26.213Z,65.7
2018-07-26T10:26:16.272Z,65.5
2018-07-26T10:27:06.334Z,65.4
2018-07-26T10:27:56.618Z,65.4
2018-07-26T10:28:46.178Z,65.4
2018-07-26T10:29:36.518Z,65.3
2018-07-26T10:30:26.595Z,65.1
2018-07-26T10:31:16.709Z,65.1
2018-07-26T10:32:06.719Z,65.2
2018-07-26T10:32:56.792Z,65.4
2018-07-26T10:33:46.578Z,65.8
2018-07-26T10:34:36.901Z,65.9
2018-07-26T10:35:26.968Z,66.1
2018-07-26T10:36:16.537Z,66.3
2018-07-26T10:37:07.115Z,66.3
2018-07-26T10:37:57.166Z,66.4
2018-07-26T10:38:47.279Z,66.5
2018-07-26T10:39:37.287Z,66.6
2018-07-26T10:40:27.348Z,66.7
2018-07-26T10:41:17.427Z,66.8
2018-07-26T10:42:07.488Z,66.9
2018-07-26T10:42:57.548Z,66.9
2018-07-26T10:43:47.337Z,66.9
2018-07-26T10:44:37.908Z,66.9
2018-07-26T10:45:27.748Z,67.1
2018-07-26T10:46:17.815Z,67.1
2018-07-26T10:47:07.878Z,67.3
2018-07-26T10:47:57.938Z,67.4
2018-07-26T10:48:48.021Z,67.4
2018-07-26T10:49:37.832Z,67.5
2018-07-26T10:50:27.868Z,67.6
2018-07-26T10:51:17.921Z,67.6
2018-07-26T10:52:08.267Z,67.3
2018-07-26T10:52:58.052Z,66.9
2018-07-26T10:53:48.403Z,66.7
2018-07-26T10:54:38.455Z,66.5
2018-07-26T10:55:28.263Z,66.4
2018-07-26T10:56:18.592Z,66.3
2018-07-26T10:57:08.657Z,66.3
2018-07-26T10:57:58.731Z,66.1
2018-07-26T10:58:48.808Z,66
2018-07-26T10:59:38.869Z,66
2018-07-26T11:00:28.643Z,66.3
2018-07-26T11:01:18.976Z,66.5
2018-07-26T11:02:09.052Z,66.6
2018-07-26T11:02:59.114Z,66.4
2018-07-26T11:03:49.182Z,66.3
2018-07-26T11:04:39.239Z,66.1
2018-07-26T11:05:29.296Z,65.9
2018-07-26T11:06:19.108Z,65.8
2018-07-26T11:07:09.435Z,65.8
2018-07-26T11:07:59.483Z,65.9
2018-07-26T11:08:49.017Z,66.2
2018-07-26T11:09:39.910Z,66.4
2018-07-26T11:10:29.423Z,66.7
2018-07-26T11:11:19.488Z,66.9
2018-07-26T11:12:09.594Z,66.8